createdAt,value
2018-09-10T00:01:26.931Z,86.04
2018-09-10T00:03:55.599Z,85.74
2018-09-10T00:06:24.577Z,85.68
2018-09-10T00:08:53.654Z,85.51
2018-09-10T00:11:22.700Z,85.75
2018-09-10T00:13:51.601Z,85.67
2018-09-10T00:16:20.371Z,85.75
2018-09-10T00:18:49.035Z,85.73
2018-09-10T00:21:17.635Z,85.55
2018-09-10T00:23:46.476Z,85.64
2018-09-10T00:26:15.230Z,85.68
2018-09-10T00:28:44.203Z,85.52
2018-09-10T00:31:13.036Z,85.83
2018-09-10T00:33:41.881Z,86.28
2018-09-10T00:36:10.515Z,86.28
2018-09-10T00:38:39.378Z,86.28
2018-09-10T00:41:08.037Z,86.11
2018-09-10T00:43:36.944Z,86.07
2018-09-10T00:46:05.596Z,86.24
2018-09-10T00:48:34.636Z,85.91
2018-09-10T00:51:03.614Z,85.97
2018-09-10T00:53:32.453Z,86.20
2018-09-10T00:56:01.446Z,86.16
2018-09-10T00:58:30.508Z,86.02
2018-09-10T01:00:59.341Z,85.89
2018-09-10T01:03:28.010Z,85.82
2018-09-10T01:05:56.859Z,85.86
2018-09-10T01:08:25.789Z,86.63
2018-09-10T01:10:54.763Z,86.69
2018-09-10T01:13:23.381Z,86.56
2018-09-10T01:15:52.547Z,86.44
2018-09-10T01:18:21.326Z,86.47
2018-09-10T01:20:50.011Z,86.88
2018-09-10T01:23:18.971Z,86.68
2018-09-10T01:25:48.005Z,86.68
2018-09-10T01:28:16.982Z,86.37
2018-09-10T01:30:45.894Z,86.58
2018-09-10T01:33:19.719Z,86.56
2018-09-10T01:35:48.553Z,86.77
2018-09-10T01:38:17.262Z,86.24
2018-09-10T01:40:46.079Z,86.49
2018-09-10T01:43:15.003Z,86.39
2018-09-10T01:45:43.677Z,86.35
2018-09-10T01:48:12.481Z,86.44
2018-09-10T01:50:41.438Z,86.48
2018-09-10T01:53:10.202Z,86.33
2018-09-10T01:55:38.887Z,86.57
2018-09-10T01:58:07.527Z,86.73
2018-09-10T02:00:36.329Z,86.58
2018-09-10T02:03:05.453Z,86.87
2018-09-10T02:05:34.383Z,86.86
2018-09-10T02:08:03.170Z,87.06
2018-09-10T02:10:32.024Z,87.14
2018-09-10T02:13:00.643Z,87.17
2018-09-10T02:15:29.507Z,87.15
2018-09-10T02:17:58.204Z,87.23
2018-09-10T02:20:26.933Z,87.12
2018-09-10T02:22:55.706Z,87.40
2018-09-10T02:25:30.842Z,87.14
2018-09-10T02:27:59.654Z,87.51
2018-09-10T02:30:28.705Z,87.71
2018-09-10T02:32:57.514Z,87.33
2018-09-10T02:35:26.308Z,87.20
2018-09-10T02:37:55.199Z,87.45
2018-09-10T02:40:23.880Z,87.49
2018-09-10T02:42:52.806Z,88.22
2018-09-10T02:45:21.513Z,88.38
2018-09-10T02:47:50.525Z,88.52
2018-09-10T02:50:19.245Z,88.28
2018-09-10T02:52:48.225Z,88.43
2018-09-10T02:55:17.442Z,88.51
2018-09-10T02:57:46.171Z,88.69
2018-09-10T03:00:14.987Z,88.85
2018-09-10T03:02:43.927Z,88.70
2018-09-10T03:05:12.684Z,88.72
2018-09-10T03:07:41.505Z,89.13
2018-09-10T03:10:10.342Z,88.92
2018-09-10T03:12:39.030Z,88.84
2018-09-10T03:15:07.716Z,88.88
2018-09-10T03:17:36.459Z,88.41
2018-09-10T03:20:05.650Z,88.75
2018-09-10T03:22:34.423Z,88.79
2018-09-10T03:25:03.464Z,88.57
2018-09-10T03:27:32.167Z,88.42
2018-09-10T03:30:00.860Z,88.64
2018-09-10T03:32:29.909Z,88.47
2018-09-10T03:34:58.900Z,88.50
2018-09-10T03:37:27.688Z,88.43
2018-09-10T03:39:56.506Z,87.97
2018-09-10T03:42:25.219Z,88.04
2018-09-10T03:44:54.122Z,88.14
2018-09-10T03:47:23.069Z,88.03
2018-09-10T03:49:51.654Z,87.77
2018-09-10T03:52:20.354Z,87.70
2018-09-10T03:54:48.975Z,87.55
2018-09-10T03:57:18.154Z,87.71
2018-09-10T03:59:47.042Z,87.60
2018-09-10T04:02:15.992Z,87.96
2018-09-10T04:04:44.874Z,87.88
2018-09-10T04:07:13.768Z,87.85
2018-09-10T04:09:42.517Z,88.00
2018-09-10T04:12:11.391Z,88.27
2018-09-10T04:14:40.461Z,88.19
2018-09-10T04:17:09.461Z,88.09
2018-09-10T04:19:38.524Z,87.94
2018-09-10T04:22:07.585Z,88.63
2018-09-10T04:24:36.472Z,88.60
2018-09-10T04:27:05.389Z,88.48
2018-09-10T04:29:34.304Z,87.82
2018-09-10T04:32:03.052Z,88.14
2018-09-10T04:34:31.799Z,87.84
2018-09-10T04:37:00.527Z,87.73
2018-09-10T04:39:29.458Z,87.67
2018-09-10T04:41:58.473Z,87.68
2018-09-10T04:44:27.179Z,87.62
2018-09-10T04:46:55.957Z,87.65
2018-09-10T04:49:24.611Z,87.50
2018-09-10T04:51:53.539Z,87.51
2018-09-10T04:54:22.328Z,87.21
2018-09-10T04:56:51.238Z,87.42
2018-09-10T04:59:20.451Z,87.53
2018-09-10T05:01:49.184Z,87.62
2018-09-10T05:04:17.823Z,87.27
2018-09-10T05:06:46.735Z,87.50
2018-09-10T05:09:16.079Z,87.96
2018-09-10T05:11:44.942Z,88.10
2018-09-10T05:14:13.624Z,88.62
2018-09-10T05:16:42.825Z,88.68
2018-09-10T05:19:11.525Z,88.74
2018-09-10T05:21:40.361Z,88.78
2018-09-10T05:24:09.059Z,88.41
2018-09-10T05:26:37.925Z,88.70
2018-09-10T05:29:06.833Z,89.03
2018-09-10T05:31:35.597Z,89.58
2018-09-10T05:34:04.449Z,89.20
2018-09-10T05:36:33.062Z,88.78
2018-09-10T05:39:01.995Z,88.96
2018-09-10T05:41:30.729Z,88.43
2018-09-10T05:43:59.554Z,88.52
2018-09-10T05:46:28.307Z,87.97
2018-09-10T05:48:57.153Z,87.83
2018-09-10T05:51:26.219Z,87.05
2018-09-10T05:53:55.141Z,87.09
2018-09-10T05:56:24.040Z,86.89
2018-09-10T05:58:52.787Z,86.92
2018-09-10T06:01:21.572Z,86.53
2018-09-10T06:03:50.704Z,86.64
2018-09-10T06:06:19.388Z,86.50
2018-09-10T06:08:48.446Z,86.26
2018-09-10T06:11:17.413Z,86.22
2018-09-10T06:13:46.578Z,86.06
2018-09-10T06:16:15.423Z,86.12
2018-09-10T06:18:44.252Z,85.44
2018-09-10T06:21:13.092Z,85.19
2018-09-10T06:23:41.821Z,85.07
2018-09-10T06:26:10.729Z,84.64
2018-09-10T06:28:39.897Z,84.67
2018-09-10T06:31:08.851Z,82.96
2018-09-10T06:33:37.559Z,81.46
2018-09-10T06:36:06.540Z,78.51
2018-09-10T06:38:35.268Z,74.03
2018-09-10T06:41:04.019Z,74.14
2018-09-10T06:43:32.870Z,72.47
2018-09-10T06:46:01.740Z,71.13
2018-09-10T06:48:35.147Z,71.42
2018-09-10T06:51:05.739Z,67.32
2018-09-10T06:53:34.889Z,69.12
2018-09-10T06:56:04.911Z,65.98
2018-09-10T06:58:34.449Z,65.78
2018-09-10T07:01:03.362Z,62.89
2018-09-10T07:03:31.964Z,63.23
2018-09-10T07:06:01.477Z,62.64
2018-09-10T07:08:30.150Z,60.28
2018-09-10T07:10:58.987Z,60.06
2018-09-10T07:13:27.714Z,62.07
2018-09-10T07:15:56.623Z,57.97
2018-09-10T07:18:25.454Z,58.72
2018-09-10T07:20:54.268Z,54.71
2018-09-10T07:23:23.154Z,55.54
2018-09-10T07:25:52.057Z,57.23
2018-09-10T07:28:20.732Z,54.77
2018-09-10T07:30:49.369Z,56.27
2018-09-10T07:33:18.382Z,54.96
2018-09-10T07:35:47.014Z,53.92
2018-09-10T07:38:15.714Z,48.97
2018-09-10T07:40:44.452Z,48.88
2018-09-10T07:43:19.748Z,49.36
2018-09-10T07:45:48.481Z,49.35
2018-09-10T07:48:17.134Z,48.46
2018-09-10T07:50:46.286Z,47.87
2018-09-10T07:53:15.027Z,49.71
2018-09-10T07:55:43.749Z,47.72
2018-09-10T07:58:12.795Z,46.45
2018-09-10T08:00:41.603Z,47.94
2018-09-10T08:03:10.366Z,49.51
2018-09-10T08:05:39.130Z,47.01
2018-09-10T08:08:07.964Z,46.23
2018-09-10T08:10:36.690Z,46.31
2018-09-10T08:13:05.352Z,45.98
2018-09-10T08:15:34.223Z,45.48
2018-09-10T08:18:02.971Z,45.03
2018-09-10T08:20:31.912Z,46.77
2018-09-10T08:23:00.684Z,47.41
2018-09-10T08:25:29.757Z,43.94
2018-09-10T08:27:58.425Z,45.74
2018-09-10T08:30:27.176Z,43.64
2018-09-10T08:32:56.015Z,44.59
2018-09-10T08:35:24.948Z,43.90
2018-09-10T08:37:54.159Z,44.94
2018-09-10T08:40:22.898Z,45.10
2018-09-10T08:42:51.846Z,43.70
2018-09-10T08:45:20.578Z,43.26
2018-09-10T08:47:49.506Z,44.34
2018-09-10T08:50:18.370Z,43.54
2018-09-10T08:52:47.356Z,42.52
2018-09-10T08:55:16.332Z,44.89
2018-09-10T08:57:45.133Z,43.15
2018-09-10T09:00:14.236Z,43.25
2018-09-10T09:02:43.128Z,43.21
2018-09-10T09:05:12.073Z,41.91
2018-09-10T09:07:40.764Z,42.00
2018-09-10T09:10:09.526Z,42.27
2018-09-10T09:12:38.396Z,41.48
2018-09-10T09:15:07.405Z,41.83
2018-09-10T09:17:36.348Z,39.79
2018-09-10T09:20:05.962Z,41.00
2018-09-10T09:22:34.964Z,42.57
2018-09-10T09:25:04.004Z,44.43
2018-09-10T09:27:32.879Z,44.34
2018-09-10T09:30:01.606Z,43.30
2018-09-10T09:32:30.324Z,41.36
2018-09-10T09:34:59.779Z,43.23
2018-09-10T09:37:33.934Z,41.39
2018-09-10T09:40:07.987Z,41.62
2018-09-10T09:42:41.976Z,41.76
2018-09-10T09:45:16.258Z,40.55
2018-09-10T09:47:44.900Z,40.46
2018-09-10T09:53:55.851Z,41.52
2018-09-10T09:56:24.715Z,41.41
2018-09-10T09:58:53.435Z,41.89
2018-09-10T10:01:28.131Z,40.94
2018-09-10T10:05:00.076Z,42.06
2018-09-10T10:07:28.900Z,41.19
2018-09-10T10:09:57.674Z,42.63
2018-09-10T10:12:26.488Z,42.97
2018-09-10T10:14:55.233Z,46.93
2018-09-10T10:17:23.916Z,46.97
2018-09-10T10:19:53.026Z,47.97
2018-09-10T10:22:21.702Z,47.98
2018-09-10T10:24:50.641Z,45.59
2018-09-10T10:27:19.557Z,46.39
2018-09-10T10:29:48.354Z,47.53
2018-09-10T10:32:17.224Z,47.01
2018-09-10T10:34:46.215Z,47.95
2018-09-10T10:37:14.869Z,45.82
2018-09-10T10:39:43.508Z,47.10
2018-09-10T10:42:12.228Z,46.21
2018-09-10T10:44:40.867Z,45.23
2018-09-10T10:47:09.524Z,45.50
2018-09-10T10:49:38.276Z,45.12
2018-09-10T10:52:07.481Z,45.62
2018-09-10T11:02:17.565Z,46.92
2018-09-10T11:04:46.425Z,46.08
2018-09-10T11:07:15.521Z,46.94
2018-09-10T11:09:44.248Z,45.83
2018-09-10T11:12:13.275Z,44.58
2018-09-10T11:14:42.036Z,45.08
2018-09-10T11:17:10.749Z,44.11
2018-09-10T11:19:39.549Z,44.15
2018-09-10T11:22:08.639Z,44.73
2018-09-10T11:24:37.303Z,43.47
2018-09-10T11:27:06.010Z,42.45
2018-09-10T11:29:34.745Z,41.76
2018-09-10T11:32:03.525Z,41.12
2018-09-10T11:34:32.209Z,43.38
2018-09-10T11:37:00.787Z,42.68
2018-09-10T11:39:29.519Z,41.39
2018-09-10T11:41:58.413Z,41.96
2018-09-10T11:44:27.122Z,43.50
2018-09-10T11:46:55.878Z,44.31
2018-09-10T11:49:24.698Z,44.01
2018-09-10T11:51:53.485Z,44.26
2018-09-10T11:54:22.157Z,44.55
2018-09-10T11:56:50.965Z,45.40
2018-09-10T11:59:19.833Z,45.86
2018-09-10T12:01:48.825Z,45.07
2018-09-10T12:04:17.435Z,45.34
2018-09-10T12:06:46.208Z,46.05
2018-09-10T12:09:14.850Z,46.74
2018-09-10T12:11:43.637Z,47.27
2018-09-10T12:14:12.820Z,47.12
2018-09-10T12:16:41.557Z,46.66
2018-09-10T12:19:10.752Z,46.79
2018-09-10T12:21:39.475Z,47.44
2018-09-10T12:24:08.243Z,46.76
2018-09-10T12:26:37.075Z,47.58
2018-09-10T12:29:06.479Z,46.86
2018-09-10T12:31:35.327Z,46.36
2018-09-10T12:34:04.024Z,45.24
2018-09-10T12:36:32.687Z,46.98
2018-09-10T12:39:01.409Z,46.67
2018-09-10T12:41:30.289Z,46.76
2018-09-10T12:43:58.892Z,45.70
2018-09-10T12:46:27.687Z,44.44
2018-09-10T12:48:56.632Z,43.99
2018-09-10T12:51:25.268Z,44.20
2018-09-10T12:53:54.027Z,44.10
2018-09-10T12:56:22.699Z,45.14
2018-09-10T12:58:51.476Z,44.61
2018-09-10T13:01:20.332Z,43.79
2018-09-10T13:03:49.071Z,43.71
2018-09-10T13:06:17.964Z,44.30
2018-09-10T13:08:46.749Z,44.96
2018-09-10T13:11:15.448Z,47.20
2018-09-10T13:13:44.355Z,46.77
2018-09-10T13:16:13.185Z,45.94
2018-09-10T13:18:42.102Z,46.42
2018-09-10T13:21:10.892Z,48.32
2018-09-10T13:23:40.071Z,48.37
2018-09-10T13:26:09.861Z,49.84
2018-09-10T13:28:38.798Z,48.09
2018-09-10T13:31:07.708Z,46.75
2018-09-10T13:33:36.675Z,47.90
2018-09-10T13:36:05.731Z,47.19
2018-09-10T13:38:34.578Z,46.49
2018-09-10T13:41:03.311Z,46.18
2018-09-10T13:43:32.214Z,46.42
2018-09-10T13:46:01.127Z,46.29
2018-09-10T13:48:29.852Z,46.43
2018-09-10T13:50:58.565Z,44.60
2018-09-10T13:53:27.367Z,45.57
2018-09-10T13:55:56.425Z,44.01
2018-09-10T13:58:25.212Z,44.50
2018-09-10T14:00:54.282Z,43.47
2018-09-10T14:03:23.406Z,43.00
2018-09-10T14:05:52.133Z,43.45
2018-09-10T14:08:20.859Z,42.32
2018-09-10T14:10:49.665Z,38.94
2018-09-10T14:13:18.309Z,41.75
2018-09-10T14:15:47.182Z,40.26
2018-09-10T14:18:16.291Z,40.59
2018-09-10T14:20:45.108Z,39.12
2018-09-10T14:23:13.730Z,36.58
2018-09-10T14:25:42.458Z,36.42
2018-09-10T14:28:11.224Z,35.05
2018-09-10T14:30:39.992Z,34.51
2018-09-10T14:33:08.747Z,33.87
2018-09-10T14:35:37.661Z,33.10
2018-09-10T14:38:06.698Z,33.17
2018-09-10T14:40:35.381Z,36.16
2018-09-10T14:43:04.206Z,34.78
2018-09-10T14:45:32.821Z,35.75
2018-09-10T14:48:01.620Z,34.88
2018-09-10T14:50:30.792Z,34.00
2018-09-10T14:52:59.601Z,34.84
2018-09-10T14:55:28.368Z,36.83
2018-09-10T14:57:57.813Z,38.99
2018-09-10T15:00:27.592Z,37.92
2018-09-10T15:02:57.616Z,37.04
2018-09-10T15:05:26.313Z,39.31
2018-09-10T15:07:55.492Z,39.72
2018-09-10T15:10:24.186Z,40.37
2018-09-10T15:12:53.082Z,40.04
2018-09-10T15:15:21.925Z,42.49
2018-09-10T15:17:51.956Z,42.52
2018-09-10T15:20:20.918Z,42.37
2018-09-10T15:22:50.088Z,42.83
2018-09-10T15:25:18.806Z,43.80
2018-09-10T15:27:47.920Z,45.76
2018-09-10T15:30:16.767Z,46.92
2018-09-10T15:32:45.852Z,47.70
2018-09-10T15:35:14.656Z,48.00
2018-09-10T15:37:44.000Z,49.30
2018-09-10T15:40:12.750Z,50.78
2018-09-10T15:42:41.584Z,51.27
2018-09-10T15:45:10.457Z,52.11
2018-09-10T15:47:39.342Z,52.01
2018-09-10T15:50:08.279Z,53.12
2018-09-10T15:52:37.346Z,53.59
2018-09-10T15:55:06.222Z,53.95
2018-09-10T15:57:35.034Z,55.39
2018-09-10T16:00:04.146Z,55.27
2018-09-10T16:02:33.185Z,55.77
2018-09-10T16:05:01.898Z,56.59
2018-09-10T16:07:30.680Z,56.17
2018-09-10T16:09:59.332Z,56.19
2018-09-10T16:12:27.959Z,56.94
2018-09-10T16:14:57.014Z,57.53
2018-09-10T16:17:26.245Z,57.22
2018-09-10T16:19:55.793Z,57.07
2018-09-10T16:22:24.900Z,57.40
2018-09-10T16:24:53.757Z,58.25
2018-09-10T16:27:23.249Z,58.79
2018-09-10T16:29:52.353Z,59.28
2018-09-10T16:32:21.386Z,58.68
2018-09-10T16:34:50.314Z,59.25
2018-09-10T16:37:19.649Z,61.13
2018-09-10T16:39:48.543Z,60.37
2018-09-10T16:42:17.637Z,61.77
2018-09-10T16:44:46.632Z,62.74
2018-09-10T16:47:15.739Z,62.27
2018-09-10T16:49:44.808Z,63.74
2018-09-10T16:52:13.530Z,64.32
2018-09-10T16:54:42.293Z,64.50
2018-09-10T16:57:11.412Z,63.26
2018-09-10T16:59:40.312Z,63.45
2018-09-10T17:02:09.255Z,64.08
2018-09-10T17:04:38.226Z,63.75
2018-09-10T17:07:07.314Z,64.14
2018-09-10T17:09:36.194Z,64.87
2018-09-10T17:12:05.236Z,65.27
2018-09-10T17:14:36.713Z,65.88
2018-09-10T17:17:06.601Z,66.08
2018-09-10T17:19:35.798Z,65.69
2018-09-10T17:22:04.650Z,66.40
2018-09-10T17:24:33.673Z,67.71
2018-09-10T17:27:02.575Z,68.95
2018-09-10T17:29:31.658Z,69.92
2018-09-10T17:32:00.633Z,69.76
2018-09-10T17:34:29.907Z,69.83
2018-09-10T17:36:58.895Z,71.33
2018-09-10T17:39:27.576Z,71.88
2018-09-10T17:41:56.445Z,71.57
2018-09-10T17:44:25.983Z,71.53
2018-09-10T17:46:55.911Z,73.20
2018-09-10T17:49:24.839Z,73.25
2018-09-10T17:51:53.748Z,74.86
2018-09-10T17:54:23.366Z,75.10
2018-09-10T17:56:52.447Z,73.78
2018-09-10T17:59:21.595Z,74.51
2018-09-10T18:01:50.564Z,76.43
2018-09-10T18:04:19.850Z,75.11
2018-09-10T18:06:48.854Z,74.63
2018-09-10T18:09:17.773Z,74.76
2018-09-10T18:11:46.707Z,74.76
2018-09-10T18:14:15.409Z,75.59
2018-09-10T18:16:44.016Z,74.99
2018-09-10T18:19:12.605Z,76.39
2018-09-10T18:21:41.634Z,75.49
2018-09-10T18:24:10.392Z,75.93
2018-09-10T18:26:39.617Z,75.67
2018-09-10T18:29:08.442Z,76.29
2018-09-10T18:31:38.126Z,75.61
2018-09-10T18:34:07.185Z,77.30
2018-09-10T18:36:36.168Z,77.63
2018-09-10T18:39:09.190Z,77.08
2018-09-10T18:41:38.004Z,78.00
2018-09-10T18:44:07.236Z,77.10
2018-09-10T18:46:35.920Z,77.13
2018-09-10T18:49:04.762Z,77.08
2018-09-10T18:51:33.420Z,78.16
2018-09-10T18:54:02.137Z,79.02
2018-09-10T18:56:30.964Z,77.54
2018-09-10T18:58:59.980Z,79.07
2018-09-10T19:01:28.798Z,78.89
2018-09-10T19:03:57.579Z,79.03
2018-09-10T19:06:26.472Z,79.06
2018-09-10T19:08:55.178Z,79.37
2018-09-10T19:11:23.943Z,79.40
2018-09-10T19:13:52.738Z,80.57
2018-09-10T19:16:21.757Z,81.59
2018-09-10T19:18:50.481Z,81.65
2018-09-10T19:21:20.564Z,81.90
2018-09-10T19:23:49.326Z,80.73
2018-09-10T19:26:18.155Z,81.37
2018-09-10T19:28:46.980Z,81.05
2018-09-10T19:31:15.844Z,80.56
2018-09-10T19:33:44.677Z,81.30
2018-09-10T19:36:13.367Z,80.74
2018-09-10T19:38:42.407Z,81.26
2018-09-10T19:41:11.771Z,80.58
2018-09-10T19:43:40.465Z,81.25
2018-09-10T19:46:09.728Z,80.90
2018-09-10T19:48:39.273Z,81.02
2018-09-10T19:51:08.206Z,80.79
2018-09-10T19:53:37.077Z,80.40
2018-09-10T19:56:06.061Z,81.11
2018-09-10T19:58:35.818Z,81.66
2018-09-10T20:01:05.462Z,81.83
2018-09-10T20:03:34.199Z,81.25
2018-09-10T20:06:04.370Z,81.60
2018-09-10T20:08:33.203Z,80.86
2018-09-10T20:11:02.056Z,80.55
2018-09-10T20:13:31.194Z,80.88
2018-09-10T20:16:00.053Z,80.94
2018-09-10T20:18:28.920Z,80.91
2018-09-10T20:20:57.803Z,81.29
2018-09-10T20:23:26.705Z,80.53
2018-09-10T20:26:58.731Z,81.02
2018-09-10T20:29:27.537Z,81.00
2018-09-10T20:31:56.450Z,81.09
2018-09-10T20:34:25.413Z,80.70
2018-09-10T20:36:54.509Z,80.72
2018-09-10T20:39:23.475Z,82.15
2018-09-10T20:41:52.673Z,81.79
2018-09-10T20:44:21.541Z,81.36
2018-09-10T20:46:50.328Z,81.34
2018-09-10T20:49:19.009Z,82.50
2018-09-10T20:51:47.787Z,82.17
2018-09-10T20:54:16.873Z,82.44
2018-09-10T20:56:45.585Z,83.18
2018-09-10T20:59:14.395Z,82.84
2018-09-10T21:01:43.224Z,82.37
2018-09-10T21:04:11.912Z,82.85
2018-09-10T21:06:41.274Z,82.65
2018-09-10T21:09:10.835Z,83.91
2018-09-10T21:11:40.016Z,83.66
2018-09-10T21:14:09.233Z,83.04
2018-09-10T21:16:38.022Z,83.63
2018-09-10T21:19:07.236Z,83.63
2018-09-10T21:21:36.036Z,84.11
2018-09-10T21:24:04.817Z,84.19
2018-09-10T21:26:34.465Z,83.42
2018-09-10T21:29:03.408Z,84.05
2018-09-10T21:31:32.365Z,84.13
2018-09-10T21:34:01.288Z,84.94
2018-09-10T21:36:29.969Z,84.75
2018-09-10T21:38:58.740Z,84.49
2018-09-10T21:41:27.666Z,84.77
2018-09-10T21:43:56.852Z,85.07
2018-09-10T21:46:25.951Z,84.61
2018-09-10T21:48:54.770Z,84.80
2018-09-10T21:51:23.532Z,84.68
2018-09-10T21:53:52.225Z,84.93
2018-09-10T21:56:21.025Z,84.69
2018-09-10T21:58:49.923Z,83.81
2018-09-10T22:01:18.883Z,84.41
2018-09-10T22:03:47.820Z,84.12
2018-09-10T22:06:16.537Z,83.91
2018-09-10T22:08:45.439Z,83.98
2018-09-10T22:11:14.420Z,84.12
2018-09-10T22:13:43.906Z,84.10
2018-09-10T22:16:13.463Z,83.82
2018-09-10T22:18:42.445Z,84.46
2018-09-10T22:21:11.238Z,83.56
2018-09-10T22:23:40.059Z,84.87
2018-09-10T22:26:08.673Z,84.56
2018-09-10T22:28:37.440Z,84.53
2018-09-10T22:31:06.377Z,84.53
2018-09-10T22:33:35.070Z,84.39
2018-09-10T22:36:03.801Z,84.13
2018-09-10T22:38:32.533Z,83.94
2018-09-10T22:41:01.330Z,83.74
2018-09-10T22:43:30.176Z,83.76
2018-09-10T22:45:58.846Z,83.90
2018-09-10T22:48:27.593Z,83.34
2018-09-10T22:50:56.423Z,83.47
2018-09-10T22:53:25.232Z,83.69
2018-09-10T22:55:53.940Z,82.95
2018-09-10T22:58:22.610Z,83.50
2018-09-10T23:00:51.488Z,83.45
2018-09-10T23:03:20.423Z,83.08
2018-09-10T23:05:49.308Z,82.84
2018-09-10T23:08:18.266Z,83.66
2018-09-10T23:10:47.594Z,83.35
2018-09-10T23:13:16.686Z,83.32
2018-09-10T23:15:45.864Z,83.30
2018-09-10T23:18:14.615Z,83.08
2018-09-10T23:20:43.309Z,83.27
2018-09-10T23:23:12.144Z,82.93
2018-09-10T23:25:41.130Z,83.45
2018-09-10T23:28:09.854Z,83.13
2018-09-10T23:30:38.561Z,83.13
2018-09-10T23:33:07.775Z,82.87
2018-09-10T23:35:36.499Z,83.44
2018-09-10T23:38:05.222Z,83.42
2018-09-10T23:40:33.965Z,83.72
2018-09-10T23:43:02.659Z,83.17
2018-09-10T23:45:31.494Z,83.04
2018-09-10T23:48:00.340Z,83.57
2018-09-10T23:50:29.060Z,83.23
2018-09-10T23:52:57.818Z,83.41
2018-09-10T23:55:26.559Z,83.88
2018-09-10T23:57:55.222Z,83.16
